createdAt,value
2022-08-25T00:02:08.543Z,6.75
2022-08-25T00:04:37.525Z,7.07
2022-08-25T00:07:05.508Z,7.78
2022-08-25T00:09:34.406Z,6.45
2022-08-25T00:12:04.696Z,6.97
2022-08-25T00:14:36.009Z,6.63
2022-08-25T00:17:06.918Z,8.13
2022-08-25T00:19:37.165Z,6.82
2022-08-25T00:22:09.096Z,6.55
2022-08-25T00:24:37.060Z,6.63
2022-08-25T00:27:08.214Z,7.72
2022-08-25T00:29:38.509Z,7.53
2022-08-25T00:32:06.648Z,6.32
2022-08-25T00:34:36.367Z,7.50
2022-08-25T00:37:04.205Z,6.90
2022-08-25T00:39:31.245Z,7.82
2022-08-25T00:41:58.628Z,6.78
2022-08-25T00:44:26.930Z,6.90
2022-08-25T00:46:56.317Z,7.28
2022-08-25T00:49:29.598Z,5.95
2022-08-25T00:52:00.883Z,6.20
2022-08-25T00:54:31.184Z,7.38
2022-08-25T00:56:58.799Z,6.97
2022-08-25T00:59:26.535Z,7.07
2022-08-25T01:01:54.184Z,7.30
2022-08-25T01:04:21.400Z,6.82
2022-08-25T01:06:48.900Z,7.28
2022-08-25T01:09:15.969Z,7.55
2022-08-25T01:11:43.280Z,7.45
2022-08-25T01:14:10.923Z,6.78
2022-08-25T01:16:38.494Z,6.63
2022-08-25T01:19:08.194Z,7.35
2022-08-25T01:21:40.167Z,7.28
2022-08-25T01:24:07.322Z,8.48
2022-08-25T01:26:34.691Z,8.18
2022-08-25T01:29:21.690Z,7.88
2022-08-25T01:31:49.852Z,8.07
2022-08-25T01:34:17.572Z,13.63
2022-08-25T01:36:44.666Z,13.40
2022-08-25T01:39:12.355Z,21.10
2022-08-25T01:42:11.605Z,11.68
2022-08-25T01:44:40.274Z,15.07
2022-08-25T01:47:07.447Z,13.38
2022-08-25T01:49:34.622Z,13.50
2022-08-25T01:52:06.796Z,11.40
2022-08-25T01:54:33.740Z,12.98
2022-08-25T01:57:01.437Z,12.10
2022-08-25T01:59:28.386Z,12.93
2022-08-25T02:01:59.871Z,12.68
2022-08-25T02:04:32.674Z,16.02
2022-08-25T02:07:02.101Z,13.20
2022-08-25T02:09:29.273Z,16.27
2022-08-25T02:11:56.878Z,12.63
2022-08-25T02:14:24.011Z,16.77
2022-08-25T02:16:51.784Z,13.23
2022-08-25T02:19:18.856Z,14.40
2022-08-25T02:21:46.009Z,13.68
2022-08-25T02:24:13.257Z,12.30
2022-08-25T02:26:40.478Z,11.35
2022-08-25T02:29:08.011Z,13.20
2022-08-25T02:31:35.265Z,11.70
2022-08-25T02:34:02.511Z,13.50
2022-08-25T02:36:30.837Z,13.45
2022-08-25T02:38:58.188Z,11.60
2022-08-25T02:41:31.028Z,10.00
2022-08-25T02:43:59.128Z,12.38
2022-08-25T02:46:26.275Z,10.27
2022-08-25T02:48:53.589Z,10.25
2022-08-25T02:51:22.147Z,9.57
2022-08-25T02:53:49.210Z,14.70
2022-08-25T02:56:16.586Z,14.38
2022-08-25T02:58:44.260Z,11.48
2022-08-25T03:01:12.105Z,11.20
2022-08-25T03:03:40.613Z,12.52
2022-08-25T03:06:09.455Z,29.85
2022-08-25T03:08:37.647Z,19.27
2022-08-25T03:11:05.156Z,16.55
2022-08-25T03:13:32.458Z,12.95
2022-08-25T03:16:00.037Z,11.38
2022-08-25T03:18:27.577Z,10.82
2022-08-25T03:20:55.300Z,11.50
2022-08-25T03:23:22.399Z,12.27
2022-08-25T03:26:08.014Z,10.98
2022-08-25T03:28:35.705Z,11.00
2022-08-25T03:31:02.818Z,11.25
2022-08-25T03:33:30.330Z,9.73
2022-08-25T03:35:57.735Z,10.95
2022-08-25T03:38:25.563Z,10.48
2022-08-25T03:40:52.771Z,8.57
2022-08-25T03:43:19.917Z,7.95
2022-08-25T03:45:47.916Z,11.02
2022-08-25T03:48:15.518Z,11.57
2022-08-25T03:50:50.601Z,8.93
2022-08-25T03:53:19.697Z,9.10
2022-08-25T03:55:46.804Z,10.95
2022-08-25T03:58:13.728Z,9.60
2022-08-25T04:00:40.977Z,9.52
2022-08-25T04:03:08.344Z,10.93
2022-08-25T04:05:35.452Z,13.15
2022-08-25T04:08:02.696Z,9.95
2022-08-25T04:10:29.924Z,11.52
2022-08-25T04:12:57.468Z,11.55
2022-08-25T04:15:28.108Z,12.75
2022-08-25T04:17:59.067Z,9.63
2022-08-25T04:20:26.448Z,11.07
2022-08-25T04:22:53.378Z,11.60
2022-08-25T04:25:20.478Z,11.30
2022-08-25T04:27:47.401Z,10.48
2022-08-25T04:30:14.980Z,10.07
2022-08-25T04:32:42.270Z,10.38
2022-08-25T04:35:09.665Z,12.40
2022-08-25T04:37:36.688Z,9.50
2022-08-25T04:40:04.809Z,10.60
2022-08-25T04:42:31.912Z,11.75
2022-08-25T04:44:59.839Z,10.23
2022-08-25T04:47:27.717Z,10.95
2022-08-25T04:49:56.167Z,11.73
2022-08-25T04:52:23.076Z,11.65
2022-08-25T04:54:50.053Z,12.25
2022-08-25T04:57:17.212Z,11.75
2022-08-25T04:59:44.148Z,14.05
2022-08-25T05:02:11.152Z,11.38
2022-08-25T05:04:38.224Z,14.95
2022-08-25T05:07:05.509Z,11.70
2022-08-25T05:09:32.996Z,11.38
2022-08-25T05:12:01.309Z,13.23
2022-08-25T05:14:29.130Z,13.70
2022-08-25T05:16:56.409Z,14.18
2022-08-25T05:19:24.286Z,15.00
2022-08-25T05:21:52.061Z,13.82
2022-08-25T05:24:19.141Z,14.95
2022-08-25T05:26:46.210Z,11.90
2022-08-25T05:29:13.229Z,12.90
2022-08-25T05:31:44.026Z,16.52
2022-08-25T05:34:12.959Z,14.45
2022-08-25T05:36:43.493Z,14.35
2022-08-25T05:39:11.114Z,15.20
2022-08-25T05:41:38.248Z,15.10
2022-08-25T05:44:05.400Z,12.18
2022-08-25T05:46:32.468Z,15.32
2022-08-25T05:48:59.662Z,14.40
2022-08-25T05:51:26.880Z,14.50
2022-08-25T05:53:54.141Z,15.10
2022-08-25T05:56:21.150Z,13.57
2022-08-25T05:58:48.305Z,15.68
2022-08-25T06:01:45.508Z,14.13
2022-08-25T06:04:13.551Z,14.98
2022-08-25T06:06:40.717Z,12.65
2022-08-25T06:09:09.461Z,14.65
2022-08-25T06:11:40.085Z,14.20
2022-08-25T06:14:08.546Z,16.80
2022-08-25T06:16:35.546Z,18.02
2022-08-25T06:19:02.699Z,16.88
2022-08-25T06:21:29.731Z,18.23
2022-08-25T06:23:56.821Z,19.88
2022-08-25T06:26:23.957Z,19.02
2022-08-25T06:28:51.278Z,17.15
2022-08-25T06:31:19.039Z,18.92
2022-08-25T06:33:46.204Z,19.67
2022-08-25T06:36:13.114Z,18.30
2022-08-25T06:38:40.193Z,18.38
2022-08-25T06:41:07.600Z,18.42
2022-08-25T06:43:34.794Z,18.63
2022-08-25T06:46:21.811Z,18.92
2022-08-25T06:48:49.330Z,18.88
2022-08-25T06:51:17.667Z,18.50
2022-08-25T06:53:45.290Z,16.38
2022-08-25T06:56:12.462Z,17.95
2022-08-25T06:58:40.018Z,18.15
2022-08-25T07:01:20.042Z,17.38
2022-08-25T07:03:48.168Z,18.67
2022-08-25T07:06:17.204Z,16.38
2022-08-25T07:08:46.058Z,25.42
2022-08-25T07:11:16.677Z,18.27
2022-08-25T07:13:45.121Z,18.98
2022-08-25T07:16:12.295Z,23.95
2022-08-25T07:18:39.991Z,30.48
2022-08-25T07:21:08.904Z,18.05
2022-08-25T07:23:36.836Z,18.10
2022-08-25T07:29:01.822Z,18.23
2022-08-25T07:31:30.318Z,19.00
2022-08-25T07:34:16.630Z,17.63
2022-08-25T07:36:44.341Z,18.42
2022-08-25T07:39:11.466Z,19.02
2022-08-25T07:41:40.010Z,21.30
2022-08-25T07:44:07.664Z,19.17
2022-08-25T07:46:34.619Z,20.27
2022-08-25T07:49:01.956Z,20.92
2022-08-25T07:51:29.148Z,20.52
2022-08-25T07:53:56.301Z,20.05
2022-08-25T07:56:24.096Z,19.05
2022-08-25T07:58:51.414Z,18.42
2022-08-25T08:01:22.758Z,20.85
2022-08-25T08:03:51.490Z,20.48
2022-08-25T08:06:22.361Z,19.73
2022-08-25T08:08:50.660Z,21.58
2022-08-25T08:11:26.319Z,16.55
2022-08-25T08:13:54.308Z,21.13
2022-08-25T08:16:22.999Z,17.65
2022-08-25T08:18:51.219Z,18.33
2022-08-25T08:21:26.306Z,17.63
2022-08-25T08:23:58.738Z,17.60
2022-08-25T08:26:36.242Z,16.70
2022-08-25T08:29:09.098Z,18.05
2022-08-25T08:31:37.115Z,17.67
2022-08-25T08:34:04.620Z,16.02
2022-08-25T08:36:31.727Z,15.82
2022-08-25T08:38:58.989Z,17.05
2022-08-25T08:44:41.169Z,15.38
2022-08-25T08:47:45.368Z,17.80
2022-08-25T08:50:33.414Z,13.43
2022-08-25T08:53:15.094Z,14.18
2022-08-25T08:55:52.751Z,12.80
2022-08-25T08:58:26.174Z,12.27
2022-08-25T09:00:56.436Z,12.27
2022-08-25T09:04:16.785Z,11.82
2022-08-25T09:06:49.359Z,12.25
2022-08-25T09:09:31.132Z,13.68
2022-08-25T09:12:27.896Z,13.35
2022-08-25T09:15:25.624Z,12.32
2022-08-25T09:17:54.349Z,12.38
2022-08-25T09:20:41.062Z,13.93
2022-08-25T09:23:25.630Z,14.43
2022-08-25T09:26:37.538Z,12.50
2022-08-25T09:29:28.645Z,12.32
2022-08-25T09:31:58.074Z,12.82
2022-08-25T09:34:28.446Z,10.55
2022-08-25T09:36:55.449Z,9.85
2022-08-25T09:39:24.029Z,8.98
2022-08-25T09:41:59.339Z,8.15
2022-08-25T09:44:27.563Z,9.52
2022-08-25T09:47:03.688Z,9.13
2022-08-25T09:49:33.919Z,8.68
2022-08-25T09:52:28.263Z,8.68
2022-08-25T09:54:56.539Z,8.10
2022-08-25T09:57:36.561Z,8.88
2022-08-25T10:00:34.062Z,8.80
2022-08-25T10:03:06.456Z,8.85
2022-08-25T10:05:38.115Z,7.80
2022-08-25T10:08:14.644Z,7.55
2022-08-25T10:10:47.379Z,8.35
2022-08-25T10:13:22.638Z,6.85
2022-08-25T10:16:03.145Z,8.13
2022-08-25T10:18:30.629Z,7.53
2022-08-25T10:21:02.266Z,8.25
2022-08-25T10:23:30.812Z,7.60
2022-08-25T10:26:03.156Z,8.88
2022-08-25T10:28:47.835Z,7.40
2022-08-25T10:31:27.342Z,7.22
2022-08-25T10:34:14.099Z,8.30
2022-08-25T10:37:13.254Z,8.15
2022-08-25T10:40:04.994Z,8.45
2022-08-25T10:42:36.939Z,7.53
2022-08-25T10:45:40.688Z,9.75
2022-08-25T10:48:32.801Z,9.02
2022-08-25T10:51:25.897Z,10.30
2022-08-25T10:54:05.150Z,7.32
2022-08-25T10:56:41.873Z,7.78
2022-08-25T10:59:42.298Z,6.43
2022-08-25T11:02:26.872Z,7.43
2022-08-25T11:05:02.151Z,6.43
2022-08-25T11:07:32.347Z,8.30
2022-08-25T11:10:03.796Z,7.10
2022-08-25T11:12:52.124Z,7.10
2022-08-25T11:15:54.588Z,6.65
2022-08-25T11:18:28.533Z,6.60
2022-08-25T11:21:10.702Z,7.75
2022-08-25T11:23:55.867Z,7.03
2022-08-25T11:26:36.627Z,7.10
2022-08-25T11:29:17.365Z,7.65
2022-08-25T11:31:52.690Z,7.25
2022-08-25T11:34:20.482Z,7.65
2022-08-25T11:36:57.712Z,6.80
2022-08-25T11:39:56.582Z,5.97
2022-08-25T11:42:48.385Z,6.30
2022-08-25T11:45:54.146Z,7.35
2022-08-25T11:48:31.289Z,6.18
2022-08-25T11:51:00.925Z,7.07
2022-08-25T11:53:35.734Z,8.07
2022-08-25T11:56:26.398Z,7.60
2022-08-25T11:58:53.715Z,6.68
2022-08-25T12:01:39.484Z,14.18
2022-08-25T12:04:15.178Z,8.80
2022-08-25T12:07:07.388Z,7.05
2022-08-25T12:09:54.821Z,6.50
2022-08-25T12:12:29.499Z,7.20
2022-08-25T12:15:13.337Z,15.43
2022-08-25T12:17:40.916Z,6.00
2022-08-25T12:20:07.992Z,5.55
2022-08-25T12:22:35.103Z,7.43
2022-08-25T12:25:13.998Z,4.88
2022-08-25T12:27:51.670Z,5.55
2022-08-25T12:30:21.404Z,5.70
2022-08-25T12:33:26.227Z,6.18
2022-08-25T12:36:01.788Z,7.10
2022-08-25T12:38:28.720Z,6.55
2022-08-25T12:41:12.251Z,6.22
2022-08-25T12:43:46.657Z,5.57
2022-08-25T12:46:29.840Z,5.63
2022-08-25T12:49:00.777Z,6.13
2022-08-25T12:51:33.820Z,4.97
2022-08-25T12:54:24.080Z,5.47
2022-08-25T12:57:03.193Z,6.22
2022-08-25T12:59:40.588Z,4.78
2022-08-25T13:02:13.519Z,5.50
2022-08-25T13:04:55.134Z,4.40
2022-08-25T13:07:48.887Z,5.05
2022-08-25T13:10:34.184Z,4.63
2022-08-25T13:13:16.920Z,4.80
2022-08-25T13:15:47.023Z,5.30
2022-08-25T13:18:33.070Z,5.72
2022-08-25T13:21:07.541Z,5.78
2022-08-25T13:23:37.072Z,5.18
2022-08-25T13:26:04.125Z,6.07
2022-08-25T13:28:36.327Z,5.55
2022-08-25T13:31:07.774Z,5.25
2022-08-25T13:36:21.800Z,4.88
2022-08-25T13:38:50.002Z,4.95
2022-08-25T13:41:18.791Z,4.70
2022-08-25T13:43:46.171Z,4.70
2022-08-25T13:46:13.677Z,4.80
2022-08-25T13:48:49.552Z,4.63
2022-08-25T13:51:21.519Z,4.35
2022-08-25T13:53:50.529Z,5.25
2022-08-25T13:56:42.053Z,5.05
2022-08-25T14:01:55.628Z,5.43
2022-08-25T14:04:25.637Z,5.35
2022-08-25T14:07:22.984Z,5.38
2022-08-25T14:09:54.966Z,4.60
2022-08-25T14:12:33.794Z,6.75
2022-08-25T14:15:12.103Z,5.43
2022-08-25T14:17:41.020Z,5.25
2022-08-25T14:20:21.978Z,5.50
2022-08-25T14:22:51.122Z,4.00
2022-08-25T14:25:18.193Z,4.50
2022-08-25T14:30:36.484Z,4.50
2022-08-25T14:33:03.985Z,4.43
2022-08-25T14:35:31.775Z,4.20
2022-08-25T14:37:58.985Z,5.18
2022-08-25T14:40:26.733Z,6.25
2022-08-25T14:42:56.886Z,5.35
2022-08-25T14:45:24.057Z,5.10
2022-08-25T14:47:51.100Z,5.13
2022-08-25T14:50:20.169Z,5.20
2022-08-25T14:52:48.358Z,4.50
2022-08-25T14:55:31.498Z,5.28
2022-08-25T14:57:58.833Z,4.72
2022-08-25T15:00:26.360Z,4.30
2022-08-25T15:02:54.946Z,4.38
2022-08-25T15:05:25.759Z,4.32
2022-08-25T15:08:12.265Z,4.43
2022-08-25T15:10:40.335Z,7.88
2022-08-25T15:13:07.732Z,4.40
2022-08-25T15:15:37.668Z,5.20
2022-08-25T15:18:05.509Z,5.65
2022-08-25T15:20:33.304Z,4.50
2022-08-25T15:23:00.305Z,4.70
2022-08-25T15:25:27.740Z,4.38
2022-08-25T15:27:54.957Z,5.10
2022-08-25T15:30:21.990Z,4.93
2022-08-25T15:32:58.020Z,5.10
2022-08-25T15:35:29.093Z,5.50
2022-08-25T15:37:56.384Z,6.72
2022-08-25T15:40:23.536Z,6.03
2022-08-25T15:42:50.534Z,6.65
2022-08-25T15:45:17.618Z,6.20
2022-08-25T15:47:45.052Z,6.05
2022-08-25T15:50:14.797Z,5.80
2022-08-25T15:52:46.648Z,5.50
2022-08-25T15:55:15.720Z,5.68
2022-08-25T15:57:42.938Z,5.93
2022-08-25T16:00:11.668Z,6.32
2022-08-25T16:02:40.629Z,5.60
2022-08-25T16:05:09.002Z,5.60
2022-08-25T16:07:36.093Z,5.75
2022-08-25T16:10:04.462Z,6.45
2022-08-25T16:12:31.818Z,5.72
2022-08-25T16:14:58.767Z,5.85
2022-08-25T16:17:26.732Z,5.80
2022-08-25T16:19:53.683Z,5.43
2022-08-25T16:22:20.735Z,6.18
2022-08-25T16:24:48.015Z,5.90
2022-08-25T16:27:15.294Z,5.88
2022-08-25T16:29:42.806Z,7.55
2022-08-25T16:32:11.006Z,7.22
2022-08-25T16:34:38.081Z,7.43
2022-08-25T16:37:06.763Z,8.70
2022-08-25T16:39:33.760Z,8.75
2022-08-25T16:42:00.738Z,8.40
2022-08-25T16:44:28.251Z,7.95
2022-08-25T16:46:55.524Z,9.48
2022-08-25T16:49:24.215Z,10.63
2022-08-25T16:51:57.340Z,9.77
2022-08-25T16:54:45.551Z,9.70
2022-08-25T16:57:13.391Z,10.13
2022-08-25T16:59:41.053Z,9.75
2022-08-25T17:02:09.943Z,9.20
2022-08-25T17:04:37.240Z,9.57
2022-08-25T17:07:05.406Z,9.73
2022-08-25T17:09:34.789Z,11.63
2022-08-25T17:12:01.870Z,10.35
2022-08-25T17:14:28.933Z,12.15
2022-08-25T17:16:56.383Z,11.07
2022-08-25T17:19:25.081Z,11.45
2022-08-25T17:21:53.861Z,11.63
2022-08-25T17:24:20.985Z,10.90
2022-08-25T17:26:51.228Z,10.65
2022-08-25T17:29:18.714Z,13.25
2022-08-25T17:31:48.381Z,12.63
2022-08-25T17:34:16.139Z,11.15
2022-08-25T17:36:44.023Z,11.88
2022-08-25T17:39:11.877Z,14.02
2022-08-25T17:41:39.569Z,11.77
2022-08-25T17:44:07.759Z,10.98
2022-08-25T17:46:35.358Z,12.20
2022-08-25T17:49:02.431Z,12.07
2022-08-25T17:51:31.821Z,11.18
2022-08-25T17:53:59.020Z,11.65
2022-08-25T17:56:27.242Z,11.45
2022-08-25T17:58:57.535Z,12.18
2022-08-25T18:01:27.838Z,12.32
2022-08-25T18:03:55.077Z,13.70
2022-08-25T18:06:24.234Z,12.13
2022-08-25T18:08:56.335Z,11.82
2022-08-25T18:11:26.438Z,12.23
2022-08-25T18:13:54.198Z,11.93
2022-08-25T18:16:21.746Z,11.80
2022-08-25T18:18:48.659Z,13.05
2022-08-25T18:21:16.891Z,12.73
2022-08-25T18:23:44.000Z,11.80
2022-08-25T18:26:14.367Z,14.73
2022-08-25T18:28:43.881Z,13.38
2022-08-25T18:31:13.278Z,12.55
2022-08-25T18:33:42.218Z,12.80
2022-08-25T18:36:09.801Z,12.07
2022-08-25T18:38:58.229Z,12.70
2022-08-25T18:41:26.203Z,12.55
2022-08-25T18:43:53.282Z,13.43
2022-08-25T18:46:22.518Z,11.35
2022-08-25T18:48:52.753Z,13.35
2022-08-25T18:51:23.127Z,13.00
2022-08-25T18:53:54.507Z,12.27
2022-08-25T18:56:26.590Z,13.07
2022-08-25T18:58:53.688Z,14.15
2022-08-25T19:01:20.797Z,12.88
2022-08-25T19:03:48.630Z,12.50
2022-08-25T19:06:16.025Z,14.05
2022-08-25T19:08:43.680Z,11.75
2022-08-25T19:11:10.837Z,13.27
2022-08-25T19:13:38.545Z,14.02
2022-08-25T19:16:20.448Z,11.63
2022-08-25T19:18:48.752Z,12.95
2022-08-25T19:21:15.881Z,10.63
2022-08-25T19:23:42.838Z,10.65
2022-08-25T19:26:13.840Z,13.02
2022-08-25T19:28:48.838Z,11.00
2022-08-25T19:31:18.288Z,11.43
2022-08-25T19:33:47.192Z,12.65
2022-08-25T19:36:14.770Z,12.20
2022-08-25T19:38:41.921Z,10.77
2022-08-25T19:41:14.251Z,11.52
2022-08-25T19:43:50.604Z,11.77
2022-08-25T19:46:33.019Z,10.40
2022-08-25T19:49:09.748Z,11.73
2022-08-25T19:51:44.362Z,9.73
2022-08-25T19:54:15.994Z,11.60
2022-08-25T19:56:44.047Z,12.20
2022-08-25T19:59:26.831Z,11.40
2022-08-25T20:02:09.943Z,12.43
2022-08-25T20:04:37.871Z,13.60
2022-08-25T20:07:06.863Z,12.20
2022-08-25T20:09:40.531Z,11.48
2022-08-25T20:12:08.797Z,13.27
2022-08-25T20:14:36.640Z,12.32
2022-08-25T20:17:03.980Z,13.07
2022-08-25T20:19:41.756Z,11.48
2022-08-25T20:22:11.252Z,12.45
2022-08-25T20:24:51.114Z,12.77
2022-08-25T20:27:25.192Z,11.77
2022-08-25T20:29:52.193Z,12.30
2022-08-25T20:32:22.743Z,11.85
2022-08-25T20:34:50.476Z,13.15
2022-08-25T20:37:18.750Z,12.07
2022-08-25T20:39:46.764Z,11.60
2022-08-25T20:42:13.996Z,11.90
2022-08-25T20:44:42.199Z,12.85
2022-08-25T20:47:10.438Z,11.55
2022-08-25T20:49:39.559Z,11.45
2022-08-25T20:52:07.596Z,11.23
2022-08-25T20:54:34.529Z,10.30
2022-08-25T20:57:02.566Z,10.93
2022-08-25T20:59:29.754Z,10.63
2022-08-25T21:01:57.945Z,9.93
2022-08-25T21:04:27.027Z,11.15
2022-08-25T21:06:54.032Z,9.32
2022-08-25T21:09:22.898Z,10.00
2022-08-25T21:11:51.522Z,10.77
2022-08-25T21:14:19.544Z,9.18
2022-08-25T21:16:47.208Z,11.45
2022-08-25T21:19:26.286Z,10.02
2022-08-25T21:21:54.208Z,8.80
2022-08-25T21:24:26.744Z,11.05
2022-08-25T21:26:54.807Z,8.90
2022-08-25T21:29:22.978Z,10.00
2022-08-25T21:31:51.514Z,10.38
2022-08-25T21:34:18.824Z,11.55
2022-08-25T21:36:46.073Z,11.10
2022-08-25T21:39:13.166Z,9.25
2022-08-25T21:41:42.744Z,9.98
2022-08-25T21:44:10.468Z,10.52
2022-08-25T21:46:37.662Z,9.88
2022-08-25T21:49:06.144Z,9.93
2022-08-25T21:51:40.566Z,11.27
2022-08-25T21:54:09.636Z,9.00
2022-08-25T21:56:53.287Z,9.63
2022-08-25T21:59:26.235Z,9.60
2022-08-25T22:01:57.660Z,11.15
2022-08-25T22:04:24.846Z,9.60
2022-08-25T22:06:54.891Z,11.13
2022-08-25T22:09:25.203Z,9.93
2022-08-25T22:11:54.619Z,9.02
2022-08-25T22:14:22.103Z,11.15
2022-08-25T22:16:49.148Z,10.30
2022-08-25T22:19:16.241Z,8.45
2022-08-25T22:21:43.661Z,8.80
2022-08-25T22:24:10.713Z,11.73
2022-08-25T22:26:38.655Z,9.68
2022-08-25T22:29:06.649Z,9.27
2022-08-25T22:31:35.042Z,9.38
2022-08-25T22:34:03.108Z,9.65
2022-08-25T22:36:32.451Z,9.43
2022-08-25T22:38:59.537Z,9.40
2022-08-25T22:41:28.093Z,9.05
2022-08-25T22:43:55.643Z,9.65
2022-08-25T22:46:23.475Z,7.60
2022-08-25T22:48:51.623Z,9.70
2022-08-25T22:51:21.694Z,9.57
2022-08-25T22:53:49.047Z,10.27
2022-08-25T22:56:17.632Z,8.57
2022-08-25T22:58:51.642Z,10.00
2022-08-25T23:01:20.623Z,10.35
2022-08-25T23:03:47.906Z,9.07
2022-08-25T23:06:22.148Z,9.35
2022-08-25T23:08:53.486Z,9.13
2022-08-25T23:11:21.651Z,8.63
2022-08-25T23:13:48.794Z,10.13
2022-08-25T23:16:16.021Z,12.60
2022-08-25T23:18:45.177Z,9.93
2022-08-25T23:21:38.134Z,9.77
2022-08-25T23:24:10.714Z,10.10
2022-08-25T23:26:41.962Z,10.38
2022-08-25T23:31:46.641Z,10.93
2022-08-25T23:34:13.999Z,11.25
2022-08-25T23:36:40.970Z,11.27
2022-08-25T23:39:09.330Z,10.70
2022-08-25T23:41:36.814Z,10.45
2022-08-25T23:44:05.567Z,10.95
2022-08-25T23:46:34.980Z,11.80
2022-08-25T23:49:02.850Z,11.38
2022-08-25T23:51:33.607Z,11.13
2022-08-25T23:54:04.118Z,10.93
2022-08-25T23:56:31.275Z,11.93
2022-08-25T23:58:58.761Z,11.13
